Ocean Shores, WA

12:52 AM PDT on August 21, 2014 (GMT -0700)
Duck Butt Estates at the Jetty | Change Station
CLOSE
Current Station
Personal Weather Station
Location: Ocean Shores, WA
Elevation: 26 ft
Nearby Weather Stations

Elev 26 ft 46.95 °N, 124.17 °W | Updated 15 minutes ago

Overcast
Overcast
53.9 °F
Feels Like 53.9 °F
N
0.0
Wind Variable Wind from West
Gusts 0.0 mph

Today
High -- | Low -- °F
--% Chance of Precip.
Yesterday
High -- | Low -- °F
Precip. -- in
6:21 AM 8:16 PM
Waning Crescent, 16% visible
Pressure 30.04 in
Visibility 8.0 miles
Clouds Overcast 1600 ft
Dew Point 42 °F
Humidity 65%
Rainfall 0.00 in
Snow Depth Not available.
UV 0 out of 12
Pollen 3.10 out of 12
Air Quality Not available.
Flu Activity Not available.
METAR KHQM 210653Z AUTO 28004KT 8SM OVC016 14/12 A3003 RMK AO2 SLP172 T01440117

More Conditions Fewer Conditions

Pressure 30.04 in
Visibility 8.0 miles
Clouds Overcast 1600 ft
Dew Point 42 °F
Humidity 65%
Rainfall 0.00 in
Snow Depth Not available.
UV 0 out of 12
Pollen 3.10 out of 12
Air Quality Not available.
Flu Activity Not available.
METAR KHQM 210653Z AUTO 28004KT 8SM OVC016 14/12 A3003 RMK AO2 SLP172 T01440117

More Conditions Fewer Conditions

10-Day Weather Forecast

Almanac

Astronomy

Aug. 21, 2014 Rise Set
Actual Time 6:21 AM PDT 8:16 PM PDT
Civil Twilight 5:49 AM PDT 8:49 PM PDT
Nautical Twilight 5:09 AM PDT 9:29 PM PDT
Astronomical Twilight 4:24 AM PDT 10:12 PM PDT
Moon 2:50 AM PDT 5:54 PM PDT
Length of Visible Light 14h 59m
Length of Day
13h 54m
Tomorrow will be 3m 7s shorter.
Waning Crescent, 16% of the Moon is Illuminated
Today
Waning Crescent
Aug 25
New
Sep 2
First Quarter
Sep 8
Full
Sep 15
Last Quarter

Today's Extremes

State Highs State Lows

Community

WunderPhotos

Upload Photos

1,745,858 photos uploaded!

Nearby

Snow Depth

Station Depth Elevation
Mount Crag 0 in 4050 ft
Dungeness 4 in 4100 ft
Burnt Mountain 0 in 4200 ft
Spirit Lake 0 in 3120 ft
Swift Creek 1 in 3770 ft

Earthquake Activity

City Distance Mag. Time & Date
No recent earthquake activity has been reported nearby.
Minimum magnitude displayed is 2.5.

Coastal Water Temperatures

Place Temperature
Westport, WA 55.0 °F
Tacoma, WA 55.9 °F
Seattle, WA 55.9 °F
Astoria, OR 69.1 °F

Nearby Weather Stations